Time;durP1;ratioP1;P1;durP2;ratioP2;P2;SDS_P1;SDS_P2;PMS_P1;PMS_P2;Temp;Humidity;BMP_temperature;BMP_pressure;BME280_temperature;BME280_humidity;BME280_pressure;Samples;Min_cycle;Max_cycle;Signal;HPM_P1;HPM_P2
2021/11/22 00:01:33;;;;;;;7.60;4.35;;;;;;;14.41;65.63;101408.59;5089572;28;20040;-66
2021/11/22 00:04:01;;;;;;;11.90;4.68;;;;;;;14.42;65.54;101413.03;5076686;28;20040;-66
2021/11/22 00:06:29;;;;;;;8.98;3.65;;;;;;;14.39;65.39;101407.66;5074120;28;20128;-66
2021/11/22 00:08:57;;;;;;;8.05;4.35;;;;;;;14.37;65.47;101412.06;5092147;28;20082;-66
2021/11/22 00:11:25;;;;;;;8.73;5.20;;;;;;;14.38;65.56;101410.31;5073437;28;20040;-67
2021/11/22 00:13:54;;;;;;;11.65;6.18;;;;;;;14.41;65.56;101416.56;5089955;28;20044;-66
2021/11/22 00:16:21;;;;;;;7.78;4.72;;;;;;;14.42;65.49;101415.69;5074010;28;20044;-66
2021/11/22 00:18:49;;;;;;;10.38;4.85;;;;;;;14.37;65.60;101412.06;5072864;28;20051;-66
2021/11/22 00:21:17;;;;;;;10.18;4.80;;;;;;;14.46;65.52;101411.28;5073411;28;20036;-66
2021/11/22 00:23:44;;;;;;;10.32;5.20;;;;;;;14.47;65.40;101402.44;5088963;28;20128;-66
2021/11/22 00:26:12;;;;;;;8.85;5.43;;;;;;;14.44;65.35;101403.28;5073346;28;20037;-66
2021/11/22 00:28:41;;;;;;;8.98;5.28;;;;;;;14.44;65.17;101411.25;5088574;28;20047;-66
2021/11/22 00:31:36;;;;;;;10.98;6.72;;;;;;;14.42;65.28;101410.38;5066324;28;20052;-66
2021/11/22 00:34:12;;;;;;;9.15;5.85;;;;;;;14.42;65.16;101417.44;5057223;28;20044;-66
2021/11/22 00:36:56;;;;;;;13.77;6.53;;;;;;;14.32;65.24;101419.97;5088524;28;20064;-67
2021/11/22 00:39:24;;;;;;;11.52;7.90;;;;;;;14.29;65.27;101419.94;5078008;28;20079;-66
2021/11/22 00:41:52;;;;;;;10.68;6.65;;;;;;;14.29;65.31;101413.75;5071714;28;20407;-66
2021/11/22 00:44:21;;;;;;;11.15;5.75;;;;;;;14.28;65.35;101409.31;5087480;28;20102;-66
2021/11/22 00:46:50;;;;;;;11.35;6.75;;;;;;;14.27;65.48;101419.03;5088397;28;20037;-66
2021/11/22 00:49:18;;;;;;;11.75;6.72;;;;;;;14.24;65.66;101410.16;5075873;28;20487;-66
2021/11/22 00:51:46;;;;;;;11.75;6.47;;;;;;;14.21;65.57;101418.97;5071963;28;20048;-66
2021/11/22 00:54:14;;;;;;;13.25;5.80;;;;;;;14.20;65.70;101411.88;5072135;28;20044;-66
2021/11/22 00:56:41;;;;;;;9.07;5.32;;;;;;;14.17;65.71;101419.81;5088649;28;20044;-66
2021/11/22 00:59:10;;;;;;;8.43;4.40;;;;;;;14.14;65.75;101417.09;5088502;28;20033;-66
2021/11/22 01:01:38;;;;;;;11.20;4.30;;;;;;;14.12;65.97;101416.19;5072685;28;20496;-66
2021/11/22 01:04:07;;;;;;;10.32;3.67;;;;;;;14.11;66.03;101419.72;5072992;28;20043;-66
2021/11/22 01:06:35;;;;;;;7.30;4.07;;;;;;;14.06;66.29;101424.09;5072405;28;20582;-66
2021/11/22 01:09:03;;;;;;;7.70;3.60;;;;;;;14.02;66.38;101414.31;5071164;28;20040;-66
2021/11/22 01:11:31;;;;;;;11.60;5.60;;;;;;;14.01;66.60;101422.25;5071050;28;20408;-66
2021/11/22 01:14:00;;;;;;;12.18;4.63;;;;;;;13.99;66.53;101414.25;5088024;28;20103;-66
2021/11/22 01:16:30;;;;;;;6.80;4.10;;;;;;;13.97;66.47;101405.41;5071571;28;20040;-66
2021/11/22 01:18:57;;;;;;;8.45;3.38;;;;;;;13.95;66.51;101407.16;5071375;28;20037;-67
2021/11/22 01:21:27;;;;;;;9.40;4.80;;;;;;;13.93;66.71;101412.44;5072469;28;20044;-66
2021/11/22 01:23:55;;;;;;;8.02;4.10;;;;;;;13.90;66.64;101416.81;5072393;28;20090;-67
2021/11/22 01:26:23;;;;;;;6.65;3.25;;;;;;;13.87;66.66;101408.81;5072838;28;20455;-66
2021/11/22 01:28:51;;;;;;;6.95;3.40;;;;;;;13.79;66.84;101411.34;5072379;28;20528;-66
2021/11/22 01:31:19;;;;;;;10.70;3.60;;;;;;;13.76;66.86;101413.09;5074732;28;20046;-66
2021/11/22 01:33:47;;;;;;;8.05;3.90;;;;;;;13.74;66.95;101404.22;5087935;28;20052;-66
2021/11/22 01:36:14;;;;;;;7.78;3.47;;;;;;;13.70;67.01;101399.75;5072307;28;20469;-66
2021/11/22 01:38:44;;;;;;;8.48;3.72;;;;;;;13.66;67.20;101403.22;5072315;28;20048;-66
2021/11/22 01:41:11;;;;;;;7.10;3.85;;;;;;;13.63;67.30;101405.84;5072293;28;20511;-66
2021/11/22 01:43:39;;;;;;;7.50;3.63;;;;;;;13.61;67.25;101410.22;5071873;28;20506;-66
2021/11/22 01:46:07;;;;;;;8.38;4.10;;;;;;;13.56;67.39;101400.47;5070499;28;20037;-66
2021/11/22 01:48:34;;;;;;;8.50;3.95;;;;;;;13.55;67.25;101398.66;5071782;28;20074;-66
2021/11/22 01:51:02;;;;;;;7.70;4.10;;;;;;;13.50;67.18;101400.38;5087627;28;20484;-66
2021/11/22 01:53:30;;;;;;;7.07;4.00;;;;;;;13.45;67.44;101401.19;5072064;28;20403;-66
2021/11/22 01:55:59;;;;;;;7.60;3.97;;;;;;;13.41;67.70;101397.59;5071975;28;20051;-66
2021/11/22 01:58:27;;;;;;;10.15;3.95;;;;;;;13.38;67.90;101399.31;5087745;28;20041;-66
2021/11/22 02:00:56;;;;;;;9.68;4.18;;;;;;;13.38;68.04;101401.97;5088844;28;20040;-67
2021/11/22 02:03:25;;;;;;;9.65;4.93;;;;;;;13.38;68.03;101404.63;5087755;28;20044;-66
2021/11/22 02:05:54;;;;;;;7.50;4.55;;;;;;;13.36;68.06;101401.03;5071469;28;20048;-66
2021/11/22 02:08:23;;;;;;;7.03;3.90;;;;;;;13.29;68.28;101399.16;5072038;28;20123;-66
2021/11/22 02:10:51;;;;;;;10.70;4.88;;;;;;;13.29;68.22;101400.06;5071809;28;20365;-66
2021/11/22 02:13:27;;;;;;;10.75;5.40;;;;;;;13.30;68.07;101391.25;5071419;28;20123;-67
2021/11/22 02:15:54;;;;;;;8.85;3.75;;;;;;;13.31;67.90;101395.69;5071893;28;20039;-66
2021/11/22 02:18:23;;;;;;;10.32;4.13;;;;;;;13.28;67.81;101394.72;5070503;28;20127;-66
2021/11/22 02:20:54;;;;;;;10.05;4.50;;;;;;;13.26;68.02;101394.69;5071376;28;20119;-66
2021/11/22 02:23:22;;;;;;;9.15;4.78;;;;;;;13.22;68.22;101384.94;5071734;28;20098;-66
2021/11/22 02:25:50;;;;;;;5.97;3.80;;;;;;;13.25;68.12;101400.00;5069936;28;20048;-66
2021/11/22 02:28:32;;;;;;;10.52;4.30;;;;;;;13.24;68.10;101391.16;5070984;28;20048;-66
2021/11/22 02:30:59;;;;;;;9.35;4.53;;;;;;;13.23;68.17;101399.97;5086778;28;20477;-66
2021/11/22 02:33:27;;;;;;;9.32;5.30;;;;;;;13.23;68.32;101397.31;5073520;28;20380;-67
2021/11/22 02:35:58;;;;;;;9.70;4.10;;;;;;;13.21;68.07;101401.69;5070004;28;20067;-67
2021/11/22 02:38:29;;;;;;;10.38;4.45;;;;;;;13.19;68.20;101403.47;5071477;28;20032;-67
2021/11/22 02:40:58;;;;;;;10.40;5.00;;;;;;;13.15;68.29;101405.16;5070273;28;20041;-66
2021/11/22 02:43:28;;;;;;;11.98;5.03;;;;;;;13.14;68.48;101407.78;5053912;28;20033;-66
2021/11/22 02:45:56;;;;;;;8.30;4.30;;;;;;;13.14;68.25;101402.47;5071475;28;20090;-66
2021/11/22 02:48:24;;;;;;;8.95;4.80;;;;;;;13.13;67.97;101406.00;5074356;28;20044;-66
2021/11/22 02:50:53;;;;;;;12.18;4.72;;;;;;;13.11;68.08;101407.72;5086751;28;20052;-66
2021/11/22 02:53:22;;;;;;;9.35;4.47;;;;;;;13.08;68.10;101403.25;5071546;28;20070;-66
2021/11/22 02:55:50;;;;;;;9.52;4.65;;;;;;;13.06;68.45;101409.41;5071543;28;20052;-66
2021/11/22 02:58:17;;;;;;;9.75;4.85;;;;;;;13.06;68.52;101414.72;5072638;28;20045;-66
2021/11/22 03:00:45;;;;;;;13.57;4.95;;;;;;;13.06;68.46;101412.91;5071554;28;20056;-66
2021/11/22 03:03:13;;;;;;;10.20;4.88;;;;;;;13.06;68.42;101417.34;5071497;28;20032;-66
2021/11/22 03:05:40;;;;;;;8.30;4.05;;;;;;;13.04;68.40;101419.09;5071281;28;20098;-66
2021/11/22 03:08:08;;;;;;;11.63;4.60;;;;;;;13.02;68.69;101418.16;5089442;28;20120;-66
2021/11/22 03:10:38;;;;;;;9.88;4.85;;;;;;;12.99;68.96;101423.44;5091131;28;20066;-66
2021/11/22 03:13:06;;;;;;;12.52;5.65;;;;;;;13.00;69.08;101414.59;5079852;28;20054;-66
2021/11/22 03:15:35;;;;;;;9.27;5.50;;;;;;;13.02;69.06;101420.81;5074979;28;20106;-66
2021/11/22 03:18:04;;;;;;;8.52;4.40;;;;;;;12.99;68.95;101421.66;5074900;28;20063;-66
2021/11/22 03:20:32;;;;;;;8.93;4.10;;;;;;;12.97;68.74;101420.75;5057700;28;20045;-66
2021/11/22 03:23:01;;;;;;;9.15;4.40;;;;;;;12.96;68.68;101420.72;5073970;28;20060;-66
2021/11/22 03:25:31;;;;;;;9.07;5.07;;;;;;;12.92;68.65;101418.88;5075068;28;20468;-66
2021/11/22 03:28:01;;;;;;;9.43;4.85;;;;;;;12.90;68.72;101413.56;5090928;28;20074;-66
2021/11/22 03:30:29;;;;;;;10.80;5.20;;;;;;;12.89;68.80;101416.16;5090601;28;20052;-66
2021/11/22 03:32:56;;;;;;;11.02;5.15;;;;;;;12.86;69.19;101417.03;5090401;28;20131;-66
2021/11/22 03:35:25;;;;;;;10.27;4.90;;;;;;;12.86;69.48;101416.13;5091056;28;20037;-65
2021/11/22 03:37:53;;;;;;;9.80;5.15;;;;;;;12.87;69.66;101426.75;5073765;28;20121;-66
2021/11/22 03:40:21;;;;;;;11.57;5.35;;;;;;;12.89;69.75;101437.38;5073497;28;20064;-66
2021/11/22 03:43:00;;;;;;;11.32;5.30;;;;;;;12.90;69.86;101433.88;5073306;28;20043;-66
2021/11/22 03:45:29;;;;;;;9.75;5.47;;;;;;;12.90;70.00;101426.81;5074685;28;20040;-66
2021/11/22 03:47:57;;;;;;;8.82;4.70;;;;;;;12.91;70.14;101441.84;5079130;28;20051;-66
2021/11/22 03:50:25;;;;;;;10.32;5.07;;;;;;;12.92;70.32;101437.44;5075146;28;20041;-66
2021/11/22 03:52:52;;;;;;;8.73;4.63;;;;;;;12.92;70.31;101446.28;5074336;28;20064;-66
2021/11/22 03:55:20;;;;;;;17.42;9.30;;;;;;;12.94;70.22;101446.28;5073746;28;20576;-66
2021/11/22 03:57:47;;;;;;;10.82;6.88;;;;;;;12.90;70.13;101447.09;5074370;28;20052;-66
2021/11/22 04:00:17;;;;;;;8.20;5.05;;;;;;;12.90;69.98;101447.09;5074482;28;20048;-66
2021/11/22 04:02:47;;;;;;;11.30;4.90;;;;;;;12.91;69.92;101456.84;5076911;28;20047;-66
2021/11/22 04:05:15;;;;;;;9.82;5.07;;;;;;;12.87;69.95;101455.88;5074560;28;20040;-66
2021/11/22 04:07:42;;;;;;;11.00;4.85;;;;;;;12.87;69.91;101449.69;5089962;28;20094;-66
2021/11/22 04:10:30;;;;;;;8.82;5.07;;;;;;;12.88;69.95;101459.44;5085491;28;20052;-66
2021/11/22 04:12:58;;;;;;;9.90;5.40;;;;;;;12.88;69.95;101464.72;5089902;28;20039;-66
2021/11/22 04:15:26;;;;;;;11.93;4.88;;;;;;;12.88;70.14;101465.63;5078954;28;20040;-67
2021/11/22 04:17:55;;;;;;;10.48;5.50;;;;;;;12.91;70.22;101462.16;5090075;28;20063;-66
2021/11/22 04:20:23;;;;;;;10.20;4.68;;;;;;;12.89;70.28;101467.41;5074286;28;20123;-66
2021/11/22 04:22:50;;;;;;;7.57;4.85;;;;;;;12.89;70.46;101471.81;5072917;28;20065;-66
2021/11/22 04:25:19;;;;;;;12.20;4.85;;;;;;;12.89;70.51;101463.88;5072552;28;20045;-66
2021/11/22 04:27:47;;;;;;;9.93;4.47;;;;;;;12.88;70.64;101462.09;5074025;28;20048;-66
2021/11/22 04:30:16;;;;;;;12.98;5.90;;;;;;;12.88;70.74;101467.38;5074001;28;20040;-67
2021/11/22 04:32:44;;;;;;;17.10;7.90;;;;;;;12.85;70.84;101470.88;5073921;28;20045;-66
2021/11/22 04:35:15;;;;;;;30.33;11.45;;;;;;;12.85;70.84;101472.66;5078016;28;20550;-66
2021/11/22 04:37:44;;;;;;;23.77;10.15;;;;;;;12.81;70.88;101469.03;5073862;28;20502;-66
2021/11/22 04:40:14;;;;;;;23.00;10.20;;;;;;;12.81;70.96;101481.38;5073759;28;20393;-66
2021/11/22 04:42:45;;;;;;;20.45;10.27;;;;;;;12.78;71.01;101475.19;5073638;28;20056;-66
2021/11/22 04:45:14;;;;;;;16.25;8.23;;;;;;;12.80;71.02;101483.13;5072344;28;20047;-66
2021/11/22 04:47:41;;;;;;;14.75;7.55;;;;;;;12.76;70.98;101483.97;5073677;28;20064;-66
2021/11/22 04:50:09;;;;;;;11.15;6.20;;;;;;;12.74;71.11;101489.22;5073718;28;20455;-66
2021/11/22 04:52:38;;;;;;;10.95;6.38;;;;;;;12.72;71.26;101492.72;5073596;28;20132;-66
2021/11/22 04:55:06;;;;;;;12.57;6.50;;;;;;;12.67;71.49;101489.97;5072249;28;20467;-66
2021/11/22 04:57:35;;;;;;;10.35;6.22;;;;;;;12.66;71.43;101489.97;5072057;28;20048;-66
2021/11/22 05:00:02;;;;;;;12.10;6.10;;;;;;;12.64;71.70;101489.03;5073200;28;20395;-66
2021/11/22 05:02:30;;;;;;;10.68;5.22;;;;;;;12.65;71.96;101486.44;5073497;28;20041;-66
2021/11/22 05:04:58;;;;;;;8.82;5.82;;;;;;;12.65;71.98;101504.97;5089905;28;20480;-66
2021/11/22 05:07:42;;;;;;;11.50;6.10;;;;;;;12.64;72.18;101500.53;5073207;28;20126;-66
2021/11/22 05:10:11;;;;;;;12.30;6.10;;;;;;;12.64;72.31;101500.53;5088601;28;20503;-66
2021/11/22 05:12:39;;;;;;;11.75;6.45;;;;;;;12.69;72.60;101497.94;5071752;28;20494;-66
2021/11/22 05:15:07;;;;;;;13.15;6.20;;;;;;;12.75;72.42;101500.72;5077241;28;20044;-66
2021/11/22 05:17:35;;;;;;;11.55;6.38;;;;;;;12.77;72.37;101501.66;5088429;28;20097;-66
2021/11/22 05:20:04;;;;;;;10.80;5.72;;;;;;;12.81;72.42;101502.59;5071773;28;20528;-66
2021/11/22 05:22:32;;;;;;;15.48;5.88;;;;;;;12.82;72.41;101501.72;5071591;28;20071;-66
2021/11/22 05:25:03;;;;;;;11.77;5.30;;;;;;;12.86;72.53;101507.13;5088236;28;20040;-66
2021/11/22 05:27:32;;;;;;;10.73;5.43;;;;;;;12.90;72.48;101505.41;5072638;28;20466;-67
2021/11/22 05:30:00;;;;;;;10.40;5.63;;;;;;;12.93;72.58;101513.44;5072511;28;20040;-66
2021/11/22 05:32:28;;;;;;;11.13;5.70;;;;;;;12.96;72.74;101513.47;5072602;28;20119;-66
2021/11/22 05:34:58;;;;;;;10.23;4.93;;;;;;;12.98;72.75;101512.66;5072659;28;20041;-67
2021/11/22 05:37:46;;;;;;;8.30;4.75;;;;;;;12.99;72.81;101510.88;5073059;28;20046;-68
2021/11/22 05:40:15;;;;;;;9.23;4.90;;;;;;;13.01;72.89;101527.69;5087977;28;20117;-68
2021/11/22 05:43:03;;;;;;;9.15;5.32;;;;;;;13.01;72.91;101517.09;5072289;28;20044;-68
2021/11/22 05:45:31;;;;;;;10.40;5.43;;;;;;;13.03;72.97;101518.91;5072210;28;20492;-68
2021/11/22 05:47:58;;;;;;;8.23;5.47;;;;;;;13.08;72.99;101518.97;5087972;28;20043;-68
2021/11/22 05:50:26;;;;;;;9.95;5.72;;;;;;;13.15;73.14;101521.81;5087958;28;20041;-68
2021/11/22 05:52:56;;;;;;;14.25;6.38;;;;;;;13.32;73.51;101524.75;5072730;28;20400;-68
2021/11/22 05:55:32;;;;;;;16.50;7.10;;;;;;;13.52;73.84;101523.28;5075090;28;20047;-68
2021/11/22 05:58:00;;;;;;;16.02;6.85;;;;;;;13.74;74.06;101528.94;5070737;28;20063;-69
2021/11/22 06:00:27;;;;;;;15.25;7.35;;;;;;;13.87;74.14;101525.59;5073035;28;20388;-69
2021/11/22 06:03:03;;;;;;;17.13;7.22;;;;;;;13.93;74.07;101528.34;5071992;28;20040;-69
2021/11/22 06:05:31;;;;;;;17.05;7.97;;;;;;;13.91;73.52;101528.28;5072247;28;20101;-69
2021/11/22 06:07:58;;;;;;;15.00;8.85;;;;;;;13.89;73.35;101530.06;5089026;28;20033;-67
2021/11/22 06:10:28;;;;;;;16.42;7.63;;;;;;;13.88;73.25;101524.72;5071815;28;20048;-67
2021/11/22 06:12:56;;;;;;;12.73;7.50;;;;;;;13.94;73.32;101524.81;5072011;28;20486;-68
2021/11/22 06:15:25;;;;;;;13.80;7.28;;;;;;;14.15;74.09;101516.25;5072403;28;20090;-67
2021/11/22 06:17:53;;;;;;;13.63;6.25;;;;;;;14.42;74.82;101523.72;5071573;28;20181;-67
2021/11/22 06:20:21;;;;;;;9.55;5.10;;;;;;;14.70;75.20;101539.13;5072106;28;20045;-67
2021/11/22 06:22:49;;;;;;;12.75;6.40;;;;;;;14.98;75.38;101529.63;5076729;28;20048;-67
2021/11/22 06:25:17;;;;;;;8.50;5.05;;;;;;;15.21;75.50;101524.56;5071715;28;20044;-67
2021/11/22 06:27:46;;;;;;;8.60;4.80;;;;;;;15.39;75.75;101533.56;5071400;28;20068;-67
2021/11/22 06:30:14;;;;;;;8.95;4.65;;;;;;;15.63;76.04;101521.34;5071692;28;20040;-67
2021/11/22 06:32:42;;;;;;;9.25;4.10;;;;;;;15.83;75.72;101520.59;5086821;28;20048;-68
2021/11/22 06:35:10;;;;;;;10.18;4.13;;;;;;;16.03;75.99;101526.06;5087166;28;20040;-67
2021/11/22 06:37:38;;;;;;;9.13;4.60;;;;;;;16.31;75.43;101525.31;5070954;28;20124;-67
2021/11/22 06:40:08;;;;;;;8.43;4.50;;;;;;;16.69;74.99;101525.47;5071795;28;20037;-67
2021/11/22 06:42:37;;;;;;;13.75;7.25;;;;;;;16.93;74.24;101523.78;5071182;28;20395;-67
2021/11/22 06:45:09;;;;;;;17.58;12.40;;;;;;;17.16;73.42;101527.34;5070921;28;20041;-67
2021/11/22 06:47:37;;;;;;;54.47;46.30;;;;;;;17.28;72.56;101527.34;5069724;28;20048;-67
2021/11/22 06:50:08;;;;;;;83.20;72.88;;;;;;;17.47;71.56;101529.13;5070993;28;20060;-67
2021/11/22 06:52:36;;;;;;;92.22;72.13;;;;;;;17.70;70.49;101526.50;5070064;28;20393;-67
2021/11/22 06:55:06;;;;;;;65.25;48.60;;;;;;;17.89;68.75;101535.38;5071151;28;20032;-68
2021/11/22 06:57:34;;;;;;;35.83;29.23;;;;;;;17.94;67.53;101541.56;5071502;28;20036;-67
2021/11/22 07:00:02;;;;;;;23.80;17.77;;;;;;;18.20;66.60;101539.72;5071243;28;20040;-67
2021/11/22 07:02:31;;;;;;;39.67;31.67;;;;;;;18.36;65.84;101542.34;5071247;28;20041;-68
2021/11/22 07:04:59;;;;;;;28.60;25.50;;;;;;;18.53;65.07;101545.84;5071325;28;20047;-68
2021/11/22 07:07:27;;;;;;;20.33;17.08;;;;;;;18.71;64.89;101549.34;5070050;28;20076;-67
2021/11/22 07:09:55;;;;;;;12.57;7.53;;;;;;;18.88;64.32;101551.06;5080012;28;20040;-68
2021/11/22 07:12:23;;;;;;;11.65;4.93;;;;;;;19.09;63.49;101549.13;5071209;28;20090;-68
2021/11/22 07:14:51;;;;;;;9.95;4.15;;;;;;;19.28;63.06;101557.94;5071089;28;20045;-68
2021/11/22 07:17:18;;;;;;;7.18;4.53;;;;;;;19.47;62.39;101556.91;5071439;28;20090;-69
2021/11/22 07:19:48;;;;;;;11.18;5.75;;;;;;;19.37;61.58;101557.84;5071195;28;20056;-67
2021/11/22 07:22:16;;;;;;;31.02;27.08;;;;;;;19.22;60.42;101570.47;5071349;28;20044;-68
2021/11/22 07:24:46;;;;;;;35.95;28.55;;;;;;;18.95;60.14;101571.53;5071924;28;20045;-68
2021/11/22 07:27:16;;;;;;;20.33;15.43;;;;;;;18.66;59.72;101571.66;5071134;28;20040;-67
2021/11/22 07:29:43;;;;;;;16.17;10.80;;;;;;;18.36;59.83;101564.63;5069680;28;20052;-68
2021/11/22 07:32:12;;;;;;;13.98;7.72;;;;;;;18.11;59.82;101573.63;5071045;28;20123;-67
2021/11/22 07:34:40;;;;;;;12.82;6.45;;;;;;;17.89;60.09;101579.00;5070959;28;20098;-68
2021/11/22 07:37:10;;;;;;;11.68;7.72;;;;;;;17.73;60.50;101566.53;5070942;28;20055;-67
2021/11/22 07:39:38;;;;;;;12.43;7.75;;;;;;;17.58;60.74;101569.19;5075723;28;20056;-67
2021/11/22 07:42:06;;;;;;;13.30;8.52;;;;;;;17.49;61.08;101575.41;5071099;28;20086;-68
2021/11/22 07:44:33;;;;;;;13.65;8.10;;;;;;;17.68;61.70;101578.13;5070842;28;20054;-67
2021/11/22 07:47:04;;;;;;;11.50;5.40;;;;;;;18.03;62.31;101581.66;5069320;28;20040;-68
2021/11/22 07:49:32;;;;;;;9.60;4.03;;;;;;;18.47;62.33;101575.28;5070741;28;20049;-68
2021/11/22 07:52:00;;;;;;;7.90;3.25;;;;;;;18.92;61.62;101572.41;5070574;28;20090;-67
2021/11/22 07:54:29;;;;;;;7.65;3.00;;;;;;;19.33;60.39;101574.84;5072667;28;20122;-68
2021/11/22 07:56:57;;;;;;;8.25;3.22;;;;;;;19.69;59.17;101572.81;5090070;28;20032;-68
2021/11/22 07:59:25;;;;;;;5.05;2.25;;;;;;;20.10;57.88;101565.22;5077546;28;20119;-68
2021/11/22 08:01:53;;;;;;;7.45;2.63;;;;;;;20.30;56.43;101567.69;5074530;28;20044;-68
2021/11/22 08:04:21;;;;;;;4.93;2.33;;;;;;;20.50;54.80;101572.84;5074510;28;20032;-67
2021/11/22 08:07:00;;;;;;;6.55;2.53;;;;;;;20.56;54.03;101568.31;5074070;28;20044;-68
2021/11/22 08:09:31;;;;;;;5.03;2.47;;;;;;;20.72;53.83;101560.06;5074238;28;20043;-68
2021/11/22 08:15:00;;;;;;;5.18;2.55;;;;;;;21.02;52.04;101554.25;5031334;28;20505;-68
2021/11/22 08:17:30;;;;;;;7.63;2.42;;;;;;;21.16;51.45;101556.78;5031802;28;20061;-68
2021/11/22 08:19:58;;;;;;;8.15;3.30;;;;;;;21.16;51.34;101552.28;5051651;28;20045;-68
2021/11/22 08:22:27;;;;;;;7.38;2.85;;;;;;;21.28;51.71;101554.78;5073826;28;20049;-70
2021/11/22 08:24:56;;;;;;;5.25;2.30;;;;;;;21.42;51.42;101547.38;5073867;28;20098;-68
2021/11/22 08:27:27;;;;;;;8.07;2.95;;;;;;;21.52;50.82;101552.63;5074339;28;20036;-68
2021/11/22 08:29:55;;;;;;;5.68;2.08;;;;;;;21.64;50.66;101544.34;5074129;28;20048;-67
2021/11/22 08:32:43;;;;;;;6.25;3.67;;;;;;;21.76;50.04;101545.00;5072848;28;20503;-68
2021/11/22 08:35:11;;;;;;;5.00;2.50;;;;;;;21.78;49.75;101550.38;5073851;28;20079;-68
2021/11/22 08:37:40;;;;;;;6.57;2.58;;;;;;;21.81;50.16;101547.63;5073639;28;20044;-68
2021/11/22 08:40:14;;;;;;;4.63;2.20;;;;;;;21.85;49.75;101546.66;5069474;28;20040;-68
2021/11/22 08:42:42;;;;;;;6.43;2.50;;;;;;;21.94;48.32;101542.91;5073876;28;20555;-67
2021/11/22 08:45:10;;;;;;;5.75;2.13;;;;;;;22.07;48.04;101552.53;5073664;28;20476;-67
2021/11/22 08:47:38;;;;;;;6.07;2.15;;;;;;;22.20;47.68;101549.59;5073447;28;20127;-68
2021/11/22 08:53:53;;;;;;;6.72;2.15;;;;;;;22.15;46.60;101548.78;5072777;28;20041;-67
2021/11/22 08:56:23;;;;;;;5.22;2.40;;;;;;;21.94;46.91;101556.34;5073391;28;20396;-67
2021/11/22 08:58:51;;;;;;;4.55;2.35;;;;;;;21.79;47.41;101554.84;5055655;28;20498;-68
2021/11/22 09:01:19;;;;;;;9.88;4.53;;;;;;;21.76;47.83;101550.41;5078040;28;20047;-68
2021/11/22 09:03:47;;;;;;;5.22;3.28;;;;;;;21.65;48.27;101551.50;5088403;28;20049;-67
2021/11/22 09:06:14;;;;;;;9.38;4.15;;;;;;;21.61;49.24;101552.44;5072155;28;20032;-68
2021/11/22 09:08:42;;;;;;;7.25;5.05;;;;;;;21.85;49.70;101560.09;5073386;28;20548;-68
2021/11/22 09:11:10;;;;;;;8.38;3.95;;;;;;;22.18;49.22;101550.56;5076489;28;20438;-67
2021/11/22 09:13:45;;;;;;;7.13;2.55;;;;;;;22.21;48.70;101559.44;5073106;28;20040;-67
2021/11/22 09:16:13;;;;;;;4.75;2.35;;;;;;;22.29;48.92;101548.53;5073196;28;20366;-67
2021/11/22 09:18:41;;;;;;;7.30;2.55;;;;;;;22.42;48.55;101551.84;5072903;28;20054;-67
2021/11/22 09:21:09;;;;;;;8.77;2.65;;;;;;;22.60;48.41;101546.06;5072858;28;20124;-68
2021/11/22 09:23:37;;;;;;;6.32;2.55;;;;;;;22.73;48.08;101544.03;5073042;28;20041;-68
2021/11/22 09:26:05;;;;;;;5.50;3.58;;;;;;;22.88;47.99;101539.22;5072413;28;20036;-69
2021/11/22 09:28:34;;;;;;;5.55;3.13;;;;;;;23.02;47.72;101534.41;5072570;28;20065;-68
2021/11/22 09:31:03;;;;;;;5.63;2.38;;;;;;;23.13;47.00;101539.50;5072442;28;20039;-68
2021/11/22 09:33:31;;;;;;;9.32;2.38;;;;;;;23.09;47.16;101534.25;5072913;28;20137;-68
2021/11/22 09:35:59;;;;;;;6.43;2.20;;;;;;;23.07;47.04;101530.69;5072693;28;20484;-69
2021/11/22 09:38:48;;;;;;;7.50;2.90;;;;;;;23.03;47.01;101533.47;5075373;28;20070;-68
2021/11/22 09:41:16;;;;;;;4.70;2.20;;;;;;;22.89;45.84;101526.63;5088084;28;20107;-68
2021/11/22 09:43:45;;;;;;;7.53;3.75;;;;;;;22.74;45.77;101524.28;5072690;28;20048;-68
2021/11/22 09:46:16;;;;;;;7.05;2.40;;;;;;;22.68;46.10;101522.56;5072539;28;20507;-68
2021/11/22 09:49:00;;;;;;;6.78;3.50;;;;;;;22.80;46.20;101510.66;5072104;28;20036;-69
2021/11/22 09:51:27;;;;;;;4.30;2.20;;;;;;;22.98;45.56;101510.22;5072003;28;20033;-68
2021/11/22 09:53:55;;;;;;;7.50;2.20;;;;;;;23.20;43.86;101506.13;5072411;28;20148;-69
2021/11/22 09:56:24;;;;;;;3.88;1.98;;;;;;;23.26;42.82;101514.03;5071850;28;20051;-68
2021/11/22 09:58:51;;;;;;;4.30;2.10;;;;;;;23.28;42.76;101508.63;5072383;28;20481;-68
2021/11/22 10:01:23;;;;;;;6.28;2.50;;;;;;;23.38;43.12;101504.75;5076657;28;21174;-69
2021/11/22 10:04:00;;;;;;;6.85;2.78;;;;;;;23.39;43.38;101507.44;5072168;28;20487;-68
2021/11/22 10:06:29;;;;;;;7.85;4.13;;;;;;;23.30;43.33;101506.78;5070223;28;20067;-69
2021/11/22 10:08:56;;;;;;;10.38;4.25;;;;;;;23.21;43.19;101504.31;5071778;28;20385;-69
2021/11/22 10:11:24;;;;;;;5.55;2.78;;;;;;;23.21;43.41;101507.00;5072405;28;20123;-68
2021/11/22 10:13:51;;;;;;;3.55;2.25;;;;;;;23.29;43.83;101507.72;5089133;28;20403;-68
2021/11/22 10:16:26;;;;;;;23.27;13.48;;;;;;;23.20;43.07;101507.91;5071714;28;20044;-68
2021/11/22 10:18:56;;;;;;;13.23;6.50;;;;;;;22.94;43.23;101513.94;5071694;28;20048;-68
2021/11/22 10:21:25;;;;;;;10.68;5.75;;;;;;;22.66;43.80;101502.88;5071891;28;20045;-68
2021/11/22 10:24:00;;;;;;;8.68;3.97;;;;;;;22.50;44.65;101496.06;5071844;28;20514;-68
2021/11/22 10:26:37;;;;;;;4.88;2.50;;;;;;;22.36;45.25;101509.81;5070194;28;20037;-68
2021/11/22 10:29:05;;;;;;;5.47;2.78;;;;;;;22.28;45.80;101503.69;5071907;28;20044;-69
2021/11/22 10:31:35;;;;;;;6.97;3.10;;;;;;;22.30;46.23;101509.06;5071732;28;20062;-69
2021/11/22 10:34:03;;;;;;;6.30;2.75;;;;;;;22.26;45.96;101505.53;5080063;27;20449;-68
2021/11/22 10:36:36;;;;;;;4.43;2.15;;;;;;;22.14;46.40;101506.66;5071510;28;20044;-69
2021/11/22 10:39:07;;;;;;;5.13;2.30;;;;;;;22.38;46.62;101507.09;5070599;28;20044;-69
2021/11/22 10:41:39;;;;;;;3.97;2.00;;;;;;;22.46;45.94;101497.03;5071620;28;20043;-68
2021/11/22 10:44:09;;;;;;;4.53;2.92;;;;;;;22.66;45.54;101486.72;5075812;28;20346;-69
2021/11/22 10:46:42;;;;;;;4.93;2.15;;;;;;;22.73;45.21;101495.56;5071311;28;20515;-68
2021/11/22 10:49:13;;;;;;;6.40;2.90;;;;;;;22.71;45.08;101495.56;5071352;28;20045;-69
2021/11/22 10:51:44;;;;;;;4.13;2.05;;;;;;;22.66;45.17;101482.22;5071228;28;20147;-69
2021/11/22 10:54:13;;;;;;;4.97;2.20;;;;;;;22.71;45.60;101486.63;5071246;28;20075;-69
2021/11/22 10:56:44;;;;;;;4.00;1.95;;;;;;;22.75;45.78;101489.25;5071259;28;20052;-69
2021/11/22 10:59:13;;;;;;;5.70;3.65;;;;;;;22.74;46.19;101495.53;5071410;28;20124;-69
2021/11/22 11:01:45;;;;;;;7.20;3.40;;;;;;;22.77;46.11;101487.41;5071521;28;20094;-68
2021/11/22 11:04:19;;;;;;;9.10;4.80;;;;;;;22.75;46.08;101491.03;5071092;28;20041;-68
2021/11/22 11:06:48;;;;;;;;;;;;;;;22.64;46.01;101489.44;5071478;28;20123;-68
2021/11/22 11:09:22;;;;;;;4.47;2.10;;;;;;;22.39;45.95;101492.69;5071376;28;19920;-68
2021/11/22 11:11:55;;;;;;;5.18;2.55;;;;;;;22.17;46.21;101493.16;5070929;28;20052;-68
2021/11/22 11:14:25;;;;;;;6.55;2.22;;;;;;;22.18;46.59;101494.94;5071054;28;20064;-68
2021/11/22 11:16:55;;;;;;;4.70;2.42;;;;;;;22.27;46.19;101485.78;5071479;28;20472;-68
2021/11/22 11:19:22;;;;;;;7.57;4.20;;;;;;;22.18;46.15;101486.88;5075082;28;20462;-69
2021/11/22 11:21:51;;;;;;;6.97;3.97;;;;;;;22.10;46.36;101488.84;5071048;28;20514;-69
2021/11/22 11:24:20;;;;;;;5.95;3.33;;;;;;;22.20;46.71;101482.34;5071339;28;20119;-69
2021/11/22 11:26:50;;;;;;;5.80;2.80;;;;;;;22.42;46.83;101476.50;5069443;28;20495;-68
2021/11/22 11:29:18;;;;;;;6.60;3.40;;;;;;;22.61;46.66;101473.38;5072980;28;20051;-69
2021/11/22 11:31:45;;;;;;;6.22;2.70;;;;;;;22.72;46.54;101474.91;5074808;28;20123;-69
2021/11/22 11:34:16;;;;;;;7.82;3.38;;;;;;;22.77;46.50;101468.56;5074735;28;20135;-69
2021/11/22 11:37:19;;;;;;;7.70;3.25;;;;;;;22.71;46.36;101467.78;5073896;28;20048;-68
2021/11/22 11:40:19;;;;;;;9.77;3.25;;;;;;;22.60;45.71;101462.63;5059908;28;20051;-68